sensor_id;sensor_type;location;lat;lon;timestamp;pressure;altitude;pressure_sealevel;temperature;humidity
48089;BME280;33867;50.314;7.802;2023-07-30T00:00:01;99815.16;;;19.08;81.06
48089;BME280;33867;50.314;7.802;2023-07-30T00:03:21;99804.25;;;19.02;81.30
48089;BME280;33867;50.314;7.802;2023-07-30T00:06:40;99815.16;;;19.02;80.65
48089;BME280;33867;50.314;7.802;2023-07-30T00:10:26;99820.63;;;18.68;83.84
48089;BME280;33867;50.314;7.802;2023-07-30T00:14:36;99813.44;;;18.41;84.73
48089;BME280;33867;50.314;7.802;2023-07-30T00:18:01;99812.66;;;18.67;82.49
48089;BME280;33867;50.314;7.802;2023-07-30T00:21:20;99813.25;;;18.62;82.79
48089;BME280;33867;50.314;7.802;2023-07-30T00:24:39;99821.88;;;18.66;82.07
48089;BME280;33867;50.314;7.802;2023-07-30T00:27:59;99822.72;;;18.66;81.71
48089;BME280;33867;50.314;7.802;2023-07-30T00:31:17;99826.91;;;18.69;81.13
48089;BME280;33867;50.314;7.802;2023-07-30T00:34:36;99818.47;;;18.57;81.28
48089;BME280;33867;50.314;7.802;2023-07-30T00:37:55;99820.81;;;18.47;82.71
48089;BME280;33867;50.314;7.802;2023-07-30T00:41:16;99822.66;;;18.47;82.13
48089;BME280;33867;50.314;7.802;2023-07-30T00:44:46;99822.66;;;18.47;81.53
48089;BME280;33867;50.314;7.802;2023-07-30T00:52:16;99822.63;;;18.20;83.79
48089;BME280;33867;50.314;7.802;2023-07-30T00:55:43;99839.03;;;18.40;82.10
48089;BME280;33867;50.314;7.802;2023-07-30T00:59:03;99843.25;;;18.49;81.66
48089;BME280;33867;50.314;7.802;2023-07-30T01:02:31;99856.63;;;18.37;82.49
48089;BME280;33867;50.314;7.802;2023-07-30T01:05:55;99861.88;;;18.46;81.20
48089;BME280;33867;50.314;7.802;2023-07-30T01:09:17;99858.72;;;18.35;81.51
48089;BME280;33867;50.314;7.802;2023-07-30T01:13:03;99859.13;;;18.32;81.60
48089;BME280;33867;50.314;7.802;2023-07-30T01:16:35;99862.69;;;18.26;81.12
48089;BME280;33867;50.314;7.802;2023-07-30T01:19:56;99849.38;;;17.97;83.23
48089;BME280;33867;50.314;7.802;2023-07-30T01:23:16;99852.69;;;17.86;85.58
48089;BME280;33867;50.314;7.802;2023-07-30T01:26:46;99855.66;;;17.97;83.73
48089;BME280;33867;50.314;7.802;2023-07-30T01:30:17;99852.38;;;18.15;82.59
48089;BME280;33867;50.314;7.802;2023-07-30T01:33:42;99853.03;;;18.30;81.59
48089;BME280;33867;50.314;7.802;2023-07-30T01:37:19;99865.88;;;18.36;81.76
48089;BME280;33867;50.314;7.802;2023-07-30T01:40:47;99872.38;;;18.35;81.56
48089;BME280;33867;50.314;7.802;2023-07-30T01:44:06;99884.50;;;18.33;81.41
48089;BME280;33867;50.314;7.802;2023-07-30T01:47:25;99876.59;;;17.90;84.81
48089;BME280;33867;50.314;7.802;2023-07-30T01:50:44;99884.84;;;18.10;83.17
48089;BME280;33867;50.314;7.802;2023-07-30T01:54:53;99885.31;;;18.27;81.77
48089;BME280;33867;50.314;7.802;2023-07-30T01:58:31;99880.28;;;18.30;82.00
48089;BME280;33867;50.314;7.802;2023-07-30T02:02:18;99886.19;;;18.40;81.54
48089;BME280;33867;50.314;7.802;2023-07-30T02:06:25;99885.56;;;18.45;81.43
48089;BME280;33867;50.314;7.802;2023-07-30T02:10:16;99878.03;;;18.40;81.69
48089;BME280;33867;50.314;7.802;2023-07-30T02:14:46;99877.81;;;18.35;82.15
48089;BME280;33867;50.314;7.802;2023-07-30T02:18:37;99895.63;;;18.45;81.55
48089;BME280;33867;50.314;7.802;2023-07-30T02:22:01;99888.50;;;18.44;81.57
48089;BME280;33867;50.314;7.802;2023-07-30T02:25:22;99887.22;;;18.26;82.41
48089;BME280;33867;50.314;7.802;2023-07-30T02:28:41;99896.03;;;18.28;82.30
48089;BME280;33867;50.314;7.802;2023-07-30T02:32:00;99883.88;;;18.31;82.31
48089;BME280;33867;50.314;7.802;2023-07-30T02:35:26;99893.75;;;18.38;81.32
48089;BME280;33867;50.314;7.802;2023-07-30T02:38:47;99906.34;;;18.46;81.02
48089;BME280;33867;50.314;7.802;2023-07-30T02:42:09;99894.16;;;18.35;83.21
48089;BME280;33867;50.314;7.802;2023-07-30T02:45:30;99892.00;;;18.18;83.55
48089;BME280;33867;50.314;7.802;2023-07-30T02:48:49;99900.47;;;18.36;81.86
48089;BME280;33867;50.314;7.802;2023-07-30T02:52:08;99893.53;;;18.47;81.39
48089;BME280;33867;50.314;7.802;2023-07-30T02:55:27;99895.63;;;18.45;81.93
48089;BME280;33867;50.314;7.802;2023-07-30T02:58:49;99903.00;;;18.51;81.22
48089;BME280;33867;50.314;7.802;2023-07-30T03:02:15;99896.91;;;18.42;81.92
48089;BME280;33867;50.314;7.802;2023-07-30T03:05:34;99899.63;;;18.35;82.23
48089;BME280;33867;50.314;7.802;2023-07-30T03:08:54;99905.47;;;18.32;81.89
48089;BME280;33867;50.314;7.802;2023-07-30T03:12:13;99906.28;;;18.26;82.02
48089;BME280;33867;50.314;7.802;2023-07-30T03:15:37;99906.81;;;18.02;83.68
48089;BME280;33867;50.314;7.802;2023-07-30T03:18:57;99906.94;;;17.87;84.35
48089;BME280;33867;50.314;7.802;2023-07-30T03:22:17;99903.84;;;17.97;83.13
48089;BME280;33867;50.314;7.802;2023-07-30T03:25:39;99914.31;;;17.93;83.22
48089;BME280;33867;50.314;7.802;2023-07-30T03:29:04;99914.31;;;17.93;82.78
48089;BME280;33867;50.314;7.802;2023-07-30T03:32:24;99919.34;;;17.90;82.78
48089;BME280;33867;50.314;7.802;2023-07-30T03:35:47;99914.94;;;17.61;85.45
48089;BME280;33867;50.314;7.802;2023-07-30T03:39:09;99908.25;;;17.63;83.98
48089;BME280;33867;50.314;7.802;2023-07-30T03:42:44;99914.63;;;17.70;83.25
48089;BME280;33867;50.314;7.802;2023-07-30T03:46:04;99911.09;;;17.76;82.73
48089;BME280;33867;50.314;7.802;2023-07-30T03:49:37;99909.00;;;17.78;82.29
48089;BME280;33867;50.314;7.802;2023-07-30T03:53:15;99921.75;;;17.71;83.38
48089;BME280;33867;50.314;7.802;2023-07-30T03:56:49;99919.09;;;17.85;82.65
48089;BME280;33867;50.314;7.802;2023-07-30T04:00:17;99923.47;;;17.79;84.49
48089;BME280;33867;50.314;7.802;2023-07-30T04:03:57;99923.09;;;17.89;82.39
48089;BME280;33867;50.314;7.802;2023-07-30T04:07:42;99915.56;;;17.91;82.96
48089;BME280;33867;50.314;7.802;2023-07-30T04:11:16;99909.50;;;17.95;82.68
48089;BME280;33867;50.314;7.802;2023-07-30T04:15:00;99899.66;;;17.94;82.25
48089;BME280;33867;50.314;7.802;2023-07-30T04:19:15;99922.28;;;17.95;82.30
48089;BME280;33867;50.314;7.802;2023-07-30T04:23:09;99916.66;;;17.68;83.69
48089;BME280;33867;50.314;7.802;2023-07-30T04:27:14;99926.16;;;17.44;85.75
48089;BME280;33867;50.314;7.802;2023-07-30T04:30:56;99931.59;;;17.72;83.79
48089;BME280;33867;50.314;7.802;2023-07-30T04:34:15;99931.84;;;17.77;84.32
48089;BME280;33867;50.314;7.802;2023-07-30T04:37:35;99932.22;;;17.74;84.46
48089;BME280;33867;50.314;7.802;2023-07-30T04:40:59;99933.06;;;17.75;83.78
48089;BME280;33867;50.314;7.802;2023-07-30T04:44:23;99916.78;;;17.81;85.12
48089;BME280;33867;50.314;7.802;2023-07-30T04:47:48;99921.25;;;17.96;83.04
48089;BME280;33867;50.314;7.802;2023-07-30T04:51:33;99923.44;;;18.14;82.37
48089;BME280;33867;50.314;7.802;2023-07-30T04:54:56;99932.28;;;17.88;85.03
48089;BME280;33867;50.314;7.802;2023-07-30T04:58:18;99932.28;;;17.88;84.58
48089;BME280;33867;50.314;7.802;2023-07-30T05:01:42;99929.66;;;18.01;83.61
48089;BME280;33867;50.314;7.802;2023-07-30T05:05:04;99927.47;;;18.31;81.61
48089;BME280;33867;50.314;7.802;2023-07-30T05:08:23;99925.88;;;18.50;80.95
48089;BME280;33867;50.314;7.802;2023-07-30T05:11:42;99907.34;;;18.32;82.10
48089;BME280;33867;50.314;7.802;2023-07-30T05:15:01;99911.59;;;18.48;80.93
48089;BME280;33867;50.314;7.802;2023-07-30T05:18:29;99908.28;;;18.59;80.40
48089;BME280;33867;50.314;7.802;2023-07-30T05:27:36;99905.88;;;18.29;82.27
48089;BME280;33867;50.314;7.802;2023-07-30T05:31:25;99891.28;;;17.96;84.80
48089;BME280;33867;50.314;7.802;2023-07-30T05:35:17;99904.69;;;18.58;81.44
48089;BME280;33867;50.314;7.802;2023-07-30T05:38:54;99917.34;;;18.92;80.77
48089;BME280;33867;50.314;7.802;2023-07-30T05:42:51;99924.94;;;18.97;80.06
48089;BME280;33867;50.314;7.802;2023-07-30T05:47:12;99926.38;;;18.73;81.45
48089;BME280;33867;50.314;7.802;2023-07-30T05:58:59;99933.94;;;19.37;79.63
48089;BME280;33867;50.314;7.802;2023-07-30T06:02:53;99936.47;;;19.65;79.12
48089;BME280;33867;50.314;7.802;2023-07-30T06:10:25;99938.56;;;19.63;78.34
48089;BME280;33867;50.314;7.802;2023-07-30T06:14:56;99932.25;;;19.76;78.36
48089;BME280;33867;50.314;7.802;2023-07-30T06:18:51;99940.69;;;19.68;78.07
48089;BME280;33867;50.314;7.802;2023-07-30T06:22:45;99955.41;;;19.67;77.88
48089;BME280;33867;50.314;7.802;2023-07-30T06:26:44;99948.44;;;19.71;78.20
48089;BME280;33867;50.314;7.802;2023-07-30T06:36:49;99974.69;;;19.65;79.21
48089;BME280;33867;50.314;7.802;2023-07-30T06:40:41;99963.78;;;19.78;79.17
48089;BME280;33867;50.314;7.802;2023-07-30T06:44:13;99959.97;;;19.53;78.87
48089;BME280;33867;50.314;7.802;2023-07-30T06:47:36;99961.03;;;19.72;78.74
48089;BME280;33867;50.314;7.802;2023-07-30T06:55:18;99966.72;;;19.70;80.03
48089;BME280;33867;50.314;7.802;2023-07-30T06:59:13;99955.59;;;19.72;79.18
48089;BME280;33867;50.314;7.802;2023-07-30T07:02:56;99954.84;;;20.09;78.63
48089;BME280;33867;50.314;7.802;2023-07-30T07:06:33;99948.88;;;20.39;77.84
48089;BME280;33867;50.314;7.802;2023-07-30T07:10:08;99951.50;;;20.97;76.10
48089;BME280;33867;50.314;7.802;2023-07-30T07:13:52;99945.84;;;21.23;74.27
48089;BME280;33867;50.314;7.802;2023-07-30T07:17:13;99941.22;;;21.17;74.81
48089;BME280;33867;50.314;7.802;2023-07-30T07:20:33;99942.75;;;21.13;74.46
48089;BME280;33867;50.314;7.802;2023-07-30T07:24:16;99940.78;;;20.64;74.31
48089;BME280;33867;50.314;7.802;2023-07-30T07:27:55;99956.88;;;20.79;75.42
48089;BME280;33867;50.314;7.802;2023-07-30T07:35:45;99972.84;;;20.50;76.53
48089;BME280;33867;50.314;7.802;2023-07-30T07:40:16;99965.34;;;20.19;76.81
48089;BME280;33867;50.314;7.802;2023-07-30T07:43:46;99966.22;;;20.06;77.14
48089;BME280;33867;50.314;7.802;2023-07-30T07:47:06;99964.59;;;19.92;77.49
48089;BME280;33867;50.314;7.802;2023-07-30T07:50:36;99966.25;;;19.93;77.91
48089;BME280;33867;50.314;7.802;2023-07-30T07:53:55;99962.50;;;19.81;77.66
48089;BME280;33867;50.314;7.802;2023-07-30T08:02:20;99956.19;;;19.74;78.04
48089;BME280;33867;50.314;7.802;2023-07-30T08:06:28;99967.16;;;19.67;78.69
48089;BME280;33867;50.314;7.802;2023-07-30T08:09:50;99978.50;;;19.58;78.82
48089;BME280;33867;50.314;7.802;2023-07-30T08:13:10;99986.91;;;19.56;79.03
48089;BME280;33867;50.314;7.802;2023-07-30T08:16:59;100002.84;;;19.39;80.34
48089;BME280;33867;50.314;7.802;2023-07-30T08:21:05;100017.94;;;19.09;81.85
48089;BME280;33867;50.314;7.802;2023-07-30T08:25:46;100022.53;;;19.02;81.85
48089;BME280;33867;50.314;7.802;2023-07-30T08:42:46;100047.44;;;18.72;83.00
48089;BME280;33867;50.314;7.802;2023-07-30T08:46:10;100051.84;;;18.80;83.16
48089;BME280;33867;50.314;7.802;2023-07-30T08:49:41;100048.31;;;18.86;82.42
48089;BME280;33867;50.314;7.802;2023-07-30T08:53:05;100051.03;;;18.92;82.51
48089;BME280;33867;50.314;7.802;2023-07-30T08:56:44;100050.28;;;19.18;82.00
48089;BME280;33867;50.314;7.802;2023-07-30T09:00:09;100045.09;;;19.56;80.66
48089;BME280;33867;50.314;7.802;2023-07-30T09:03:36;100048.44;;;19.85;80.91
48089;BME280;33867;50.314;7.802;2023-07-30T09:07:00;100061.03;;;20.06;79.24
48089;BME280;33867;50.314;7.802;2023-07-30T09:10:25;100063.75;;;20.19;79.10
48089;BME280;33867;50.314;7.802;2023-07-30T09:13:56;100047.75;;;20.29;78.56
48089;BME280;33867;50.314;7.802;2023-07-30T09:21:36;100078.44;;;20.51;76.64
48089;BME280;33867;50.314;7.802;2023-07-30T09:25:07;100091.69;;;20.41;76.51
48089;BME280;33867;50.314;7.802;2023-07-30T09:28:52;100094.41;;;20.61;77.09
48089;BME280;33867;50.314;7.802;2023-07-30T09:32:18;100099.47;;;20.37;74.83
48089;BME280;33867;50.314;7.802;2023-07-30T09:35:46;100106.00;;;20.50;75.55
48089;BME280;33867;50.314;7.802;2023-07-30T09:39:15;100111.22;;;20.58;73.74
48089;BME280;33867;50.314;7.802;2023-07-30T09:46:48;100114.22;;;20.23;74.81
48089;BME280;33867;50.314;7.802;2023-07-30T09:50:19;100115.06;;;20.10;73.19
48089;BME280;33867;50.314;7.802;2023-07-30T09:53:44;100118.41;;;20.12;74.96
48089;BME280;33867;50.314;7.802;2023-07-30T09:57:47;100112.97;;;19.99;74.09
48089;BME280;33867;50.314;7.802;2023-07-30T10:01:26;100105.97;;;20.56;73.49
48089;BME280;33867;50.314;7.802;2023-07-30T10:05:33;100102.50;;;22.20;73.26
48089;BME280;33867;50.314;7.802;2023-07-30T10:09:43;100109.53;;;23.26;69.06
48089;BME280;33867;50.314;7.802;2023-07-30T10:13:29;100109.72;;;23.54;66.71
48089;BME280;33867;50.314;7.802;2023-07-30T10:17:16;100099.00;;;23.23;66.80
48089;BME280;33867;50.314;7.802;2023-07-30T10:26:25;100117.00;;;22.82;66.51
48089;BME280;33867;50.314;7.802;2023-07-30T10:40:33;100129.75;;;21.58;67.32
48089;BME280;33867;50.314;7.802;2023-07-30T10:44:27;100143.06;;;21.03;69.66
48089;BME280;33867;50.314;7.802;2023-07-30T10:57:16;100162.78;;;19.75;72.86
48089;BME280;33867;50.314;7.802;2023-07-30T11:00:38;100157.53;;;20.00;73.28
48089;BME280;33867;50.314;7.802;2023-07-30T11:04:12;100161.34;;;20.19;73.18
48089;BME280;33867;50.314;7.802;2023-07-30T11:07:35;100158.38;;;20.40;72.61
48089;BME280;33867;50.314;7.802;2023-07-30T11:11:17;100164.69;;;20.54;71.31
48089;BME280;33867;50.314;7.802;2023-07-30T11:15:10;100171.19;;;20.72;69.74
48089;BME280;33867;50.314;7.802;2023-07-30T11:19:12;100174.72;;;20.86;70.95
48089;BME280;33867;50.314;7.802;2023-07-30T11:27:09;100167.75;;;21.42;69.24
48089;BME280;33867;50.314;7.802;2023-07-30T11:30:56;100168.84;;;21.72;68.78
48089;BME280;33867;50.314;7.802;2023-07-30T11:35:11;100166.25;;;21.84;65.79
48089;BME280;33867;50.314;7.802;2023-07-30T11:39:26;100162.44;;;22.60;65.70
48089;BME280;33867;50.314;7.802;2023-07-30T11:44:28;100157.88;;;23.45;62.70
48089;BME280;33867;50.314;7.802;2023-07-30T11:48:53;100164.75;;;23.36;63.42
48089;BME280;33867;50.314;7.802;2023-07-30T11:53:17;100165.78;;;22.87;63.14
48089;BME280;33867;50.314;7.802;2023-07-30T11:56:59;100171.53;;;22.17;64.70
48089;BME280;33867;50.314;7.802;2023-07-30T12:00:33;100180.31;;;21.94;66.21
48089;BME280;33867;50.314;7.802;2023-07-30T12:04:03;100189.38;;;21.95;67.20
48089;BME280;33867;50.314;7.802;2023-07-30T12:07:51;100171.38;;;22.05;64.82
48089;BME280;33867;50.314;7.802;2023-07-30T12:22:10;100172.72;;;22.46;61.84
48089;BME280;33867;50.314;7.802;2023-07-30T12:41:14;100192.28;;;22.31;59.47
48089;BME280;33867;50.314;7.802;2023-07-30T12:50:14;100179.03;;;23.26;60.45
48089;BME280;33867;50.314;7.802;2023-07-30T12:53:36;100188.28;;;22.95;57.76
48089;BME280;33867;50.314;7.802;2023-07-30T12:57:15;100182.88;;;22.89;59.27
48089;BME280;33867;50.314;7.802;2023-07-30T13:00:57;100189.03;;;22.84;58.74
48089;BME280;33867;50.314;7.802;2023-07-30T13:04:24;100186.34;;;22.77;58.91
48089;BME280;33867;50.314;7.802;2023-07-30T13:08:15;100191.09;;;22.89;59.99
48089;BME280;33867;50.314;7.802;2023-07-30T13:12:01;100197.78;;;22.74;58.82
48089;BME280;33867;50.314;7.802;2023-07-30T13:15:27;100190.97;;;22.09;54.17
48089;BME280;33867;50.314;7.802;2023-07-30T13:23:39;100194.91;;;22.44;58.19
48089;BME280;33867;50.314;7.802;2023-07-30T13:27:07;100185.03;;;22.62;57.30
48089;BME280;33867;50.314;7.802;2023-07-30T13:30:36;100173.63;;;22.83;58.23
48089;BME280;33867;50.314;7.802;2023-07-30T13:34:06;100177.16;;;22.90;55.95
48089;BME280;33867;50.314;7.802;2023-07-30T13:37:50;100178.34;;;22.76;54.60
48089;BME280;33867;50.314;7.802;2023-07-30T13:41:18;100185.09;;;22.98;57.36
48089;BME280;33867;50.314;7.802;2023-07-30T13:45:25;100181.28;;;22.56;53.75
48089;BME280;33867;50.314;7.802;2023-07-30T13:54:34;100185.53;;;23.80;50.76
48089;BME280;33867;50.314;7.802;2023-07-30T14:12:16;100202.47;;;25.36;49.34
48089;BME280;33867;50.314;7.802;2023-07-30T14:20:56;100158.31;;;24.96;49.30
48089;BME280;33867;50.314;7.802;2023-07-30T14:24:42;100156.34;;;24.44;52.13
48089;BME280;33867;50.314;7.802;2023-07-30T14:37:34;100154.47;;;24.97;49.03
48089;BME280;33867;50.314;7.802;2023-07-30T15:03:54;100150.59;;;24.46;47.18
48089;BME280;33867;50.314;7.802;2023-07-30T15:35:00;100145.78;;;24.18;46.10
48089;BME280;33867;50.314;7.802;2023-07-30T15:38:44;100148.88;;;24.10;47.12
48089;BME280;33867;50.314;7.802;2023-07-30T15:42:06;100151.53;;;23.75;50.31
48089;BME280;33867;50.314;7.802;2023-07-30T15:45:29;100149.41;;;23.28;51.22
48089;BME280;33867;50.314;7.802;2023-07-30T15:49:11;100152.53;;;23.32;52.50
48089;BME280;33867;50.314;7.802;2023-07-30T15:52:30;100149.22;;;23.12;50.32
48089;BME280;33867;50.314;7.802;2023-07-30T15:56:08;100156.34;;;23.31;52.60
48089;BME280;33867;50.314;7.802;2023-07-30T16:03:58;100152.09;;;22.80;51.87
48089;BME280;33867;50.314;7.802;2023-07-30T16:07:17;100155.72;;;23.47;49.21
48089;BME280;33867;50.314;7.802;2023-07-30T16:14:26;100159.19;;;24.38;47.32
48089;BME280;33867;50.314;7.802;2023-07-30T16:17:51;100140.66;;;24.57;47.35
48089;BME280;33867;50.314;7.802;2023-07-30T18:56:28;100215.19;;;20.25;54.64
48089;BME280;33867;50.314;7.802;2023-07-30T22:13:58;100186.25;;;18.67;74.52
48089;BME280;33867;50.314;7.802;2023-07-30T22:17:18;100188.03;;;18.53;75.08
48089;BME280;33867;50.314;7.802;2023-07-30T23:55:34;100140.91;;;18.31;70.67
48089;BME280;33867;50.314;7.802;2023-07-30T23:58:52;100127.59;;;18.15;66.14
